createdAt,value
2023-05-24T00:02:14.158Z,100.00
2023-05-24T00:04:42.058Z,100.00
2023-05-24T00:07:09.011Z,100.00
2023-05-24T00:09:35.741Z,100.00
2023-05-24T00:12:02.813Z,100.00
2023-05-24T00:14:29.516Z,100.00
2023-05-24T00:16:56.251Z,100.00
2023-05-24T00:19:23.084Z,100.00
2023-05-24T00:21:50.146Z,100.00
2023-05-24T00:24:17.629Z,100.00
2023-05-24T00:26:45.108Z,100.00
2023-05-24T00:29:11.970Z,100.00
2023-05-24T00:31:39.210Z,100.00
2023-05-24T00:34:06.612Z,100.00
2023-05-24T00:36:34.087Z,100.00
2023-05-24T00:39:00.920Z,100.00
2023-05-24T00:41:27.680Z,100.00
2023-05-24T00:43:54.765Z,100.00
2023-05-24T00:46:27.264Z,100.00
2023-05-24T00:48:54.924Z,100.00
2023-05-24T00:51:22.420Z,100.00
2023-05-24T00:53:49.819Z,100.00
2023-05-24T00:56:17.458Z,100.00
2023-05-24T00:58:45.441Z,100.00
2023-05-24T01:01:13.022Z,100.00
2023-05-24T01:03:40.223Z,100.00
2023-05-24T01:06:08.459Z,100.00
2023-05-24T01:08:50.474Z,100.00
2023-05-24T01:11:52.346Z,100.00
2023-05-24T01:14:44.961Z,100.00
2023-05-24T01:17:33.270Z,100.00
2023-05-24T01:20:08.912Z,100.00
2023-05-24T01:22:43.806Z,100.00
2023-05-24T01:25:37.272Z,100.00
2023-05-24T01:28:04.437Z,100.00
2023-05-24T01:30:31.425Z,100.00
2023-05-24T01:32:58.469Z,100.00
2023-05-24T01:35:25.240Z,100.00
2023-05-24T01:37:51.964Z,100.00
2023-05-24T01:40:18.948Z,100.00
2023-05-24T01:43:14.737Z,100.00
2023-05-24T01:46:02.615Z,100.00
2023-05-24T01:49:00.669Z,100.00
2023-05-24T01:51:38.892Z,100.00
2023-05-24T01:54:06.924Z,100.00
2023-05-24T01:56:35.942Z,100.00
2023-05-24T01:59:04.316Z,100.00
2023-05-24T02:01:32.014Z,100.00
2023-05-24T02:03:59.811Z,100.00
2023-05-24T02:06:26.552Z,100.00
2023-05-24T02:08:53.664Z,100.00
2023-05-24T02:11:21.433Z,100.00
2023-05-24T02:13:48.112Z,100.00
2023-05-24T02:16:14.875Z,100.00
2023-05-24T02:18:44.866Z,100.00
2023-05-24T02:21:12.046Z,100.00
2023-05-24T02:23:38.787Z,100.00
2023-05-24T02:26:05.742Z,100.00
2023-05-24T02:28:32.579Z,100.00
2023-05-24T02:30:59.485Z,100.00
2023-05-24T02:33:26.404Z,100.00
2023-05-24T02:35:53.092Z,100.00
2023-05-24T02:38:19.779Z,100.00
2023-05-24T02:40:46.438Z,100.00
2023-05-24T02:43:13.301Z,100.00
2023-05-24T02:45:40.060Z,100.00
2023-05-24T02:48:06.941Z,100.00
2023-05-24T02:50:34.046Z,100.00
2023-05-24T02:53:00.814Z,100.00
2023-05-24T02:55:29.186Z,100.00
2023-05-24T02:57:56.446Z,100.00
2023-05-24T03:00:24.922Z,100.00
2023-05-24T03:02:53.372Z,100.00
2023-05-24T03:05:20.493Z,100.00
2023-05-24T03:07:47.388Z,100.00
2023-05-24T03:10:16.162Z,100.00
2023-05-24T03:12:43.300Z,100.00
2023-05-24T03:15:10.609Z,100.00
2023-05-24T03:17:37.347Z,100.00
2023-05-24T03:20:05.926Z,100.00
2023-05-24T03:22:32.972Z,100.00
2023-05-24T03:24:59.731Z,100.00
2023-05-24T03:27:26.512Z,100.00
2023-05-24T03:29:54.417Z,100.00
2023-05-24T03:32:24.447Z,100.00
2023-05-24T03:34:51.173Z,100.00
2023-05-24T03:37:17.887Z,100.00
2023-05-24T03:39:45.455Z,100.00
2023-05-24T03:42:44.336Z,100.00
2023-05-24T03:45:12.257Z,100.00
2023-05-24T03:47:38.981Z,100.00
2023-05-24T03:50:06.341Z,100.00
2023-05-24T03:52:33.045Z,100.00
2023-05-24T03:54:59.775Z,100.00
2023-05-24T03:57:26.578Z,100.00
2023-05-24T03:59:53.265Z,100.00
2023-05-24T04:02:20.059Z,100.00
2023-05-24T04:04:46.953Z,100.00
2023-05-24T04:07:15.469Z,100.00
2023-05-24T04:09:43.193Z,100.00
2023-05-24T04:12:09.929Z,100.00
2023-05-24T04:14:36.604Z,100.00
2023-05-24T04:17:05.850Z,100.00
2023-05-24T04:19:32.780Z,100.00
2023-05-24T04:21:59.805Z,100.00
2023-05-24T04:24:26.636Z,100.00
2023-05-24T04:26:53.373Z,100.00
2023-05-24T04:29:20.290Z,100.00
2023-05-24T04:31:49.164Z,100.00
2023-05-24T04:34:16.025Z,100.00
2023-05-24T04:36:42.947Z,100.00
2023-05-24T04:39:11.570Z,100.00
2023-05-24T04:41:38.731Z,100.00
2023-05-24T04:44:05.531Z,100.00
2023-05-24T04:46:32.213Z,100.00
2023-05-24T04:48:59.179Z,100.00
2023-05-24T04:51:26.157Z,100.00
2023-05-24T04:53:52.841Z,100.00
2023-05-24T04:56:19.994Z,100.00
2023-05-24T04:58:47.701Z,100.00
2023-05-24T05:01:14.485Z,100.00
2023-05-24T05:03:41.509Z,100.00
2023-05-24T05:06:08.331Z,100.00
2023-05-24T05:08:35.001Z,100.00
2023-05-24T05:11:01.682Z,100.00
2023-05-24T05:13:28.453Z,100.00
2023-05-24T05:15:55.223Z,100.00
2023-05-24T05:18:21.943Z,100.00
2023-05-24T05:20:49.043Z,100.00
2023-05-24T05:23:15.972Z,100.00
2023-05-24T05:25:42.665Z,100.00
2023-05-24T05:28:09.341Z,100.00
2023-05-24T05:30:36.036Z,100.00
2023-05-24T05:33:05.962Z,100.00
2023-05-24T05:35:33.384Z,100.00
2023-05-24T05:38:00.044Z,100.00
2023-05-24T05:40:26.776Z,100.00
2023-05-24T05:42:53.545Z,100.00
2023-05-24T05:45:20.365Z,100.00
2023-05-24T05:47:47.135Z,100.00
2023-05-24T05:50:13.864Z,100.00
2023-05-24T05:52:41.084Z,100.00
2023-05-24T05:55:08.742Z,100.00
2023-05-24T05:57:35.588Z,100.00
2023-05-24T06:00:02.536Z,100.00
2023-05-24T06:02:38.694Z,100.00
2023-05-24T06:05:05.961Z,100.00
2023-05-24T06:07:32.901Z,100.00
2023-05-24T06:09:59.732Z,100.00
2023-05-24T06:12:26.793Z,100.00
2023-05-24T06:14:54.273Z,100.00
2023-05-24T06:17:24.339Z,100.00
2023-05-24T06:19:53.799Z,99.92
2023-05-24T06:22:21.689Z,99.88
2023-05-24T06:24:49.233Z,100.00
2023-05-24T06:27:16.099Z,99.37
2023-05-24T06:29:42.762Z,98.14
2023-05-24T06:32:09.535Z,98.07
2023-05-24T06:34:36.279Z,96.39
2023-05-24T06:37:03.211Z,96.07
2023-05-24T06:39:29.996Z,95.28
2023-05-24T06:41:56.698Z,96.41
2023-05-24T06:44:31.020Z,95.82
2023-05-24T06:46:57.997Z,95.29
2023-05-24T06:49:24.685Z,95.44
2023-05-24T06:51:54.723Z,94.49
2023-05-24T06:54:21.786Z,95.19
2023-05-24T06:56:48.466Z,95.39
2023-05-24T06:59:15.140Z,95.20
2023-05-24T07:01:43.045Z,95.73
2023-05-24T07:04:10.125Z,95.30
2023-05-24T07:06:37.718Z,96.34
2023-05-24T07:09:04.986Z,95.83
2023-05-24T07:11:32.185Z,93.81
2023-05-24T07:13:58.908Z,95.44
2023-05-24T07:16:25.670Z,94.87
2023-05-24T07:18:52.473Z,95.13
2023-05-24T07:21:19.218Z,93.98
2023-05-24T07:23:46.143Z,95.70
2023-05-24T07:26:12.910Z,95.69
2023-05-24T07:28:40.550Z,94.59
2023-05-24T07:31:09.968Z,93.88
2023-05-24T07:33:37.954Z,94.24
2023-05-24T07:36:06.036Z,94.65
2023-05-24T07:38:34.216Z,94.77
2023-05-24T07:41:02.113Z,94.67
2023-05-24T07:43:28.773Z,93.61
2023-05-24T07:45:55.776Z,92.63
2023-05-24T07:48:23.481Z,95.10
2023-05-24T07:50:52.645Z,94.12
2023-05-24T07:53:19.876Z,93.65
2023-05-24T07:55:46.862Z,93.43
2023-05-24T07:58:13.540Z,92.09
2023-05-24T08:00:41.482Z,91.96
2023-05-24T08:03:08.336Z,93.04
2023-05-24T08:05:35.114Z,92.02
2023-05-24T08:08:01.774Z,92.14
2023-05-24T08:10:28.844Z,92.04
2023-05-24T08:12:56.220Z,92.42
2023-05-24T08:15:23.089Z,91.64
2023-05-24T08:17:49.795Z,92.41
2023-05-24T08:20:17.851Z,93.64
2023-05-24T08:22:44.752Z,93.69
2023-05-24T08:25:14.237Z,94.07
2023-05-24T08:27:41.266Z,94.23
2023-05-24T08:30:08.880Z,92.92
2023-05-24T08:32:36.398Z,92.84
2023-05-24T08:35:17.464Z,91.98
2023-05-24T08:37:46.236Z,91.69
2023-05-24T08:40:13.082Z,91.21
2023-05-24T08:42:41.087Z,90.27
2023-05-24T08:45:15.436Z,89.85
2023-05-24T08:47:42.687Z,88.98
2023-05-24T08:50:10.364Z,89.46
2023-05-24T08:52:37.099Z,86.73
2023-05-24T08:55:07.573Z,87.08
2023-05-24T08:57:39.307Z,86.72
2023-05-24T09:00:09.552Z,86.54
2023-05-24T09:02:38.679Z,86.66
2023-05-24T09:05:09.348Z,86.10
2023-05-24T09:07:37.361Z,86.16
2023-05-24T09:10:06.892Z,85.58
2023-05-24T09:12:38.708Z,85.16
2023-05-24T09:15:07.597Z,84.24
2023-05-24T09:17:39.152Z,82.38
2023-05-24T09:20:08.976Z,82.49
2023-05-24T09:22:40.642Z,82.57
2023-05-24T09:25:10.095Z,81.24
2023-05-24T09:27:37.655Z,80.47
2023-05-24T09:30:09.206Z,80.11
2023-05-24T09:32:36.175Z,78.79
2023-05-24T09:35:02.891Z,76.90
2023-05-24T09:37:32.775Z,73.88
2023-05-24T09:40:00.046Z,74.27
2023-05-24T09:42:28.882Z,73.76
2023-05-24T09:45:08.745Z,75.52
2023-05-24T09:47:37.508Z,74.90
2023-05-24T09:50:06.942Z,75.88
2023-05-24T09:52:37.949Z,76.68
2023-05-24T09:55:18.843Z,77.63
2023-05-24T09:57:51.259Z,78.06
2023-05-24T10:00:23.247Z,77.42
2023-05-24T10:03:07.450Z,76.37
2023-05-24T10:05:35.931Z,75.96
2023-05-24T10:08:05.132Z,74.83
2023-05-24T10:10:33.514Z,77.11
2023-05-24T10:13:01.646Z,77.61
2023-05-24T10:15:29.030Z,78.03
2023-05-24T10:17:57.027Z,78.62
2023-05-24T10:20:24.765Z,79.34
2023-05-24T10:23:04.193Z,80.53
2023-05-24T10:25:33.732Z,80.41
2023-05-24T10:28:10.352Z,80.14
2023-05-24T10:30:42.421Z,79.58
2023-05-24T10:33:13.120Z,78.00
2023-05-24T10:35:41.375Z,77.35
2023-05-24T10:38:08.569Z,77.00
2023-05-24T10:40:40.891Z,76.57
2023-05-24T10:43:08.175Z,76.49
2023-05-24T10:45:41.086Z,76.40
2023-05-24T10:48:14.034Z,76.79
2023-05-24T10:50:42.615Z,76.69
2023-05-24T10:53:13.727Z,76.70
2023-05-24T10:55:57.384Z,77.14
2023-05-24T10:58:55.303Z,76.77
2023-05-24T11:01:31.107Z,76.50
2023-05-24T11:04:11.213Z,75.73
2023-05-24T11:06:55.671Z,76.02
2023-05-24T11:09:23.127Z,76.68
2023-05-24T11:11:54.553Z,75.39
2023-05-24T11:14:29.148Z,74.51
2023-05-24T11:16:56.825Z,75.87
2023-05-24T11:19:29.522Z,77.26
2023-05-24T11:22:00.652Z,76.66
2023-05-24T11:24:29.004Z,79.09
2023-05-24T11:26:57.141Z,78.96
2023-05-24T11:29:24.160Z,77.66
2023-05-24T11:31:57.786Z,78.41
2023-05-24T11:34:26.682Z,78.65
2023-05-24T11:36:55.183Z,78.29
2023-05-24T11:39:23.579Z,77.29
2023-05-24T11:41:50.446Z,78.68
2023-05-24T11:44:19.659Z,79.20
2023-05-24T11:46:46.688Z,78.26
2023-05-24T11:49:17.317Z,78.72
2023-05-24T11:51:44.206Z,77.65
2023-05-24T11:54:11.855Z,77.61
2023-05-24T11:56:38.858Z,77.39
2023-05-24T11:59:27.108Z,76.38
2023-05-24T12:02:06.771Z,76.62
2023-05-24T12:04:34.766Z,76.30
2023-05-24T12:07:02.409Z,75.91
2023-05-24T12:09:29.394Z,75.47
2023-05-24T12:11:57.713Z,75.58
2023-05-24T12:14:27.026Z,74.97
2023-05-24T12:16:56.325Z,75.05
2023-05-24T12:19:33.134Z,75.54
2023-05-24T12:22:05.111Z,75.54
2023-05-24T12:24:32.955Z,76.00
2023-05-24T12:27:07.603Z,77.22
2023-05-24T12:29:36.735Z,76.12
2023-05-24T12:32:04.293Z,75.05
2023-05-24T12:34:31.060Z,75.47
2023-05-24T12:36:57.915Z,75.37
2023-05-24T12:39:34.321Z,76.41
2023-05-24T12:42:02.240Z,77.84
2023-05-24T12:44:35.805Z,76.46
2023-05-24T12:47:05.487Z,77.73
2023-05-24T12:49:32.352Z,78.06
2023-05-24T12:51:59.220Z,78.11
2023-05-24T12:54:28.430Z,77.75
2023-05-24T12:56:57.522Z,75.85
2023-05-24T12:59:25.680Z,75.34
2023-05-24T13:01:52.929Z,76.37
2023-05-24T13:04:22.245Z,74.28
2023-05-24T13:06:49.169Z,74.17
2023-05-24T13:09:18.886Z,73.11
2023-05-24T13:11:45.690Z,73.06
2023-05-24T13:14:12.879Z,72.09
2023-05-24T13:16:39.786Z,69.47
2023-05-24T13:19:06.772Z,67.74
2023-05-24T13:21:33.809Z,66.95
2023-05-24T13:24:00.748Z,63.80
2023-05-24T13:26:27.799Z,62.57
2023-05-24T13:29:26.531Z,61.76
2023-05-24T13:31:41.867Z,62.48
2023-05-24T13:34:11.184Z,62.98
2023-05-24T13:36:38.811Z,62.82
2023-05-24T13:41:37.788Z,62.26
2023-05-24T13:44:04.601Z,62.03
2023-05-24T13:46:32.290Z,60.56
2023-05-24T13:48:59.331Z,59.77
2023-05-24T13:51:27.085Z,59.49
2023-05-24T13:53:55.553Z,59.51
2023-05-24T13:56:24.276Z,60.33
2023-05-24T13:58:52.354Z,60.08
2023-05-24T14:01:19.573Z,58.63
2023-05-24T14:03:46.586Z,56.94
2023-05-24T14:06:13.415Z,57.75
2023-05-24T14:08:40.294Z,56.57
2023-05-24T14:11:07.215Z,56.20
2023-05-24T14:16:03.756Z,52.42
2023-05-24T14:18:30.545Z,51.29
2023-05-24T14:20:57.254Z,53.43
2023-05-24T14:23:23.988Z,53.91
2023-05-24T14:25:52.087Z,52.91
2023-05-24T14:28:19.841Z,50.67
2023-05-24T14:30:46.538Z,50.22
2023-05-24T14:33:13.665Z,49.81
2023-05-24T14:35:40.884Z,49.14
2023-05-24T14:38:09.514Z,49.57
2023-05-24T14:40:37.814Z,47.89
2023-05-24T14:43:05.532Z,47.71
2023-05-24T14:45:33.243Z,49.29
2023-05-24T14:48:01.030Z,44.91
2023-05-24T14:50:27.814Z,48.00
2023-05-24T14:52:55.837Z,48.23
2023-05-24T14:55:22.818Z,48.16
2023-05-24T14:57:49.698Z,46.07
2023-05-24T15:00:18.578Z,45.12
2023-05-24T15:02:46.708Z,46.04
2023-05-24T15:05:13.559Z,45.46
2023-05-24T15:07:40.241Z,45.39
2023-05-24T15:10:07.790Z,44.10
2023-05-24T15:12:34.472Z,43.46
2023-05-24T15:15:01.394Z,43.73
2023-05-24T15:17:28.281Z,44.53
2023-05-24T15:19:56.649Z,43.93
2023-05-24T15:22:23.496Z,45.79
2023-05-24T15:24:50.421Z,42.25
2023-05-24T15:27:17.371Z,43.52
2023-05-24T15:29:44.037Z,44.55
2023-05-24T15:32:10.750Z,43.90
2023-05-24T15:34:37.442Z,43.77
2023-05-24T15:37:04.204Z,44.99
2023-05-24T15:39:30.976Z,45.00
2023-05-24T15:41:57.876Z,45.33
2023-05-24T15:44:24.683Z,45.16
2023-05-24T15:46:51.466Z,44.67
2023-05-24T15:49:18.178Z,46.58
2023-05-24T15:54:14.573Z,44.56
2023-05-24T15:56:41.237Z,44.92
2023-05-24T15:59:08.250Z,47.12
2023-05-24T16:01:35.236Z,48.23
2023-05-24T16:04:02.114Z,48.20
2023-05-24T16:06:28.846Z,46.48
2023-05-24T16:08:55.663Z,44.72
2023-05-24T16:11:23.668Z,44.62
2023-05-24T16:13:50.554Z,44.22
2023-05-24T16:16:17.328Z,45.80
2023-05-24T16:18:44.080Z,45.64
2023-05-24T16:21:10.913Z,46.58
2023-05-24T16:23:37.592Z,48.33
2023-05-24T16:26:04.305Z,48.14
2023-05-24T16:28:31.080Z,48.17
2023-05-24T16:30:58.808Z,45.99
2023-05-24T16:33:25.692Z,44.16
2023-05-24T16:35:55.815Z,45.70
2023-05-24T16:38:23.907Z,46.03
2023-05-24T16:40:51.346Z,47.01
2023-05-24T16:43:18.553Z,46.90
2023-05-24T16:45:45.782Z,48.18
2023-05-24T16:48:13.158Z,49.99
2023-05-24T16:50:40.277Z,49.94
2023-05-24T16:53:07.088Z,50.87
2023-05-24T16:55:33.768Z,49.88
2023-05-24T16:58:00.560Z,50.44
2023-05-24T17:00:27.416Z,51.09
2023-05-24T17:02:54.742Z,51.97
2023-05-24T17:05:21.558Z,51.99
2023-05-24T17:07:48.243Z,52.45
2023-05-24T17:10:14.981Z,52.67
2023-05-24T17:12:41.706Z,53.61
2023-05-24T17:15:08.965Z,53.00
2023-05-24T17:17:35.708Z,53.16
2023-05-24T17:20:02.559Z,54.14
2023-05-24T17:22:29.390Z,55.66
2023-05-24T17:24:56.044Z,55.97
2023-05-24T17:27:22.861Z,56.32
2023-05-24T17:29:49.780Z,56.28
2023-05-24T17:32:16.542Z,56.67
2023-05-24T17:34:43.295Z,55.91
2023-05-24T17:37:09.996Z,55.42
2023-05-24T17:39:36.959Z,56.12
2023-05-24T17:42:03.873Z,56.32
2023-05-24T17:44:31.385Z,57.38
2023-05-24T17:46:59.683Z,57.10
2023-05-24T17:49:26.552Z,58.24
2023-05-24T17:51:53.318Z,59.36
2023-05-24T17:54:20.125Z,58.76
2023-05-24T17:56:46.831Z,59.23
2023-05-24T17:59:13.539Z,60.56
2023-05-24T18:01:40.372Z,61.07
2023-05-24T18:04:08.504Z,61.10
2023-05-24T18:06:35.548Z,61.51
2023-05-24T18:09:02.280Z,62.44
2023-05-24T18:11:29.276Z,63.00
2023-05-24T18:13:57.088Z,63.29
2023-05-24T18:16:23.878Z,63.89
2023-05-24T18:18:50.608Z,64.06
2023-05-24T18:21:18.411Z,64.78
2023-05-24T18:23:45.084Z,64.75
2023-05-24T18:26:12.178Z,64.71
2023-05-24T18:28:39.251Z,64.56
2023-05-24T18:31:08.706Z,65.00
2023-05-24T18:33:35.823Z,65.86
2023-05-24T18:36:04.514Z,66.53
2023-05-24T18:38:33.864Z,66.68
2023-05-24T18:41:00.953Z,67.09
2023-05-24T18:43:27.593Z,66.53
2023-05-24T18:45:54.309Z,65.31
2023-05-24T18:48:21.341Z,65.46
2023-05-24T18:50:49.956Z,63.54
2023-05-24T18:53:16.665Z,63.60
2023-05-24T18:55:43.729Z,63.68
2023-05-24T18:58:10.565Z,63.57
2023-05-24T19:00:37.278Z,63.40
2023-05-24T19:03:04.002Z,63.17
2023-05-24T19:05:30.889Z,63.17
2023-05-24T19:07:57.617Z,63.44
2023-05-24T19:10:24.291Z,63.45
2023-05-24T19:12:51.572Z,63.54
2023-05-24T19:15:18.380Z,63.90
2023-05-24T19:17:45.084Z,64.41
2023-05-24T19:20:12.178Z,64.52
2023-05-24T19:22:38.899Z,64.00
2023-05-24T19:25:06.081Z,64.92
2023-05-24T19:27:32.789Z,64.73
2023-05-24T19:30:00.172Z,65.49
2023-05-24T19:32:27.053Z,66.01
2023-05-24T19:34:53.824Z,65.53
2023-05-24T19:37:21.047Z,66.28
2023-05-24T19:39:47.897Z,66.25
2023-05-24T19:42:14.865Z,65.82
2023-05-24T19:44:41.680Z,66.31
2023-05-24T19:47:08.405Z,66.09
2023-05-24T19:49:35.162Z,66.73
2023-05-24T19:52:01.845Z,66.42
2023-05-24T19:54:28.512Z,67.27
2023-05-24T19:56:56.076Z,67.99
2023-05-24T19:59:22.732Z,68.90
2023-05-24T20:01:49.517Z,68.83
2023-05-24T20:04:16.298Z,69.36
2023-05-24T20:06:43.030Z,69.40
2023-05-24T20:09:09.733Z,69.79
2023-05-24T20:11:36.402Z,70.19
2023-05-24T20:14:03.147Z,71.12
2023-05-24T20:16:30.008Z,71.88
2023-05-24T20:18:56.794Z,72.19
2023-05-24T20:21:23.545Z,72.13
2023-05-24T20:23:57.258Z,72.71
2023-05-24T20:26:24.681Z,73.04
2023-05-24T20:28:52.142Z,73.50
2023-05-24T20:31:18.957Z,73.57
2023-05-24T20:33:45.887Z,74.21
2023-05-24T20:36:14.830Z,74.35
2023-05-24T20:38:41.665Z,74.86
2023-05-24T20:41:08.336Z,75.06
2023-05-24T20:43:35.173Z,76.05
2023-05-24T20:46:02.103Z,76.14
2023-05-24T20:48:28.878Z,76.52
2023-05-24T20:50:55.530Z,76.08
2023-05-24T20:53:22.256Z,76.49
2023-05-24T20:55:49.112Z,77.65
2023-05-24T20:58:17.564Z,77.12
2023-05-24T21:00:44.347Z,76.50
2023-05-24T21:03:11.354Z,76.81
2023-05-24T21:05:40.302Z,76.73
2023-05-24T21:08:07.293Z,76.89
2023-05-24T21:10:34.093Z,76.74
2023-05-24T21:13:00.781Z,76.78
2023-05-24T21:15:27.474Z,77.47
2023-05-24T21:17:54.211Z,77.92
2023-05-24T21:20:21.553Z,77.71
2023-05-24T21:22:48.783Z,78.05
2023-05-24T21:25:15.605Z,78.17
2023-05-24T21:27:42.284Z,78.51
2023-05-24T21:30:09.317Z,78.97
2023-05-24T21:32:36.081Z,78.74
2023-05-24T21:35:02.772Z,79.64
2023-05-24T21:37:29.522Z,79.78
2023-05-24T21:39:56.320Z,79.80
2023-05-24T21:42:22.995Z,79.81
2023-05-24T21:44:49.630Z,80.20
2023-05-24T21:47:16.362Z,80.16
2023-05-24T21:49:43.072Z,80.34
2023-05-24T21:52:09.769Z,80.53
2023-05-24T21:54:36.426Z,79.89
2023-05-24T21:57:03.788Z,80.35
2023-05-24T21:59:30.502Z,80.30
2023-05-24T22:01:57.262Z,80.46
2023-05-24T22:04:23.981Z,80.62
2023-05-24T22:06:50.841Z,80.08
2023-05-24T22:09:17.617Z,80.65
2023-05-24T22:11:44.303Z,80.61
2023-05-24T22:14:11.045Z,81.59
2023-05-24T22:16:38.029Z,81.09
2023-05-24T22:19:11.608Z,81.32
2023-05-24T22:21:41.759Z,81.36
2023-05-24T22:24:12.571Z,81.33
2023-05-24T22:26:41.696Z,80.67
2023-05-24T22:29:08.525Z,80.98
2023-05-24T22:31:36.215Z,81.19
2023-05-24T22:34:03.168Z,80.99
2023-05-24T22:36:34.507Z,81.43
2023-05-24T22:39:01.724Z,81.28
2023-05-24T22:41:28.814Z,81.44
2023-05-24T22:43:57.139Z,81.77
2023-05-24T22:46:24.695Z,81.65
2023-05-24T22:48:56.758Z,81.07
2023-05-24T22:51:24.002Z,81.86
2023-05-24T22:53:52.689Z,82.01
2023-05-24T22:56:19.730Z,82.09
2023-05-24T22:58:46.438Z,82.28
2023-05-24T23:01:15.649Z,81.97
2023-05-24T23:03:42.504Z,82.17
2023-05-24T23:06:12.150Z,82.49
2023-05-24T23:08:39.151Z,82.86
2023-05-24T23:11:10.418Z,83.07
2023-05-24T23:13:37.819Z,83.40
2023-05-24T23:16:05.591Z,83.77
2023-05-24T23:18:33.079Z,83.13
2023-05-24T23:21:03.183Z,83.45
2023-05-24T23:23:30.256Z,83.75
2023-05-24T23:25:57.167Z,84.18
2023-05-24T23:28:24.433Z,84.23
2023-05-24T23:30:51.860Z,84.39
2023-05-24T23:33:18.561Z,85.00
2023-05-24T23:35:45.501Z,85.07
2023-05-24T23:38:13.751Z,85.41
2023-05-24T23:40:40.705Z,85.44
2023-05-24T23:43:08.050Z,85.77
2023-05-24T23:45:35.148Z,85.73
2023-05-24T23:48:02.224Z,85.95
2023-05-24T23:50:30.302Z,85.78
2023-05-24T23:52:59.725Z,85.88
2023-05-24T23:55:26.486Z,85.87
2023-05-24T23:57:53.878Z,85.35
